createdAt,value
2022-10-11T00:01:02.528Z,102519.88
2022-10-11T00:04:04.238Z,102515.59
2022-10-11T00:07:05.751Z,102525.94
2022-10-11T00:10:08.467Z,102532.91
2022-10-11T00:13:09.866Z,102531.06
2022-10-11T00:16:12.161Z,102524.84
2022-10-11T00:19:13.590Z,102532.59
2022-10-11T00:22:15.214Z,102531.75
2022-10-11T00:25:16.969Z,102530.78
2022-10-11T00:28:18.419Z,102536.88
2022-10-11T00:31:20.080Z,102534.09
2022-10-11T00:34:21.583Z,102541.03
2022-10-11T00:37:22.994Z,102537.78
2022-10-11T00:40:24.640Z,102552.53
2022-10-11T00:43:28.908Z,102547.16
2022-10-11T00:46:31.807Z,102549.69
2022-10-11T00:49:36.309Z,102553.09
2022-10-11T00:52:41.813Z,102555.72
2022-10-11T00:55:59.461Z,102554.06
2022-10-11T00:59:04.629Z,102549.66
2022-10-11T01:02:07.353Z,102556.63
2022-10-11T01:05:28.595Z,102549.47
2022-10-11T01:08:31.951Z,102548.56
2022-10-11T01:11:36.697Z,102557.59
2022-10-11T01:15:09.098Z,102561.13
2022-10-11T01:18:21.922Z,102561.13
2022-10-11T01:21:45.561Z,102561.03
2022-10-11T01:25:05.399Z,102562.59
2022-10-11T01:28:36.537Z,102560.69
2022-10-11T01:32:19.119Z,102568.50
2022-10-11T01:35:45.468Z,102564.13
2022-10-11T01:38:52.429Z,102561.31
2022-10-11T01:41:57.500Z,102566.47
2022-10-11T01:44:59.856Z,102565.53
2022-10-11T01:48:08.227Z,102577.63
2022-10-11T01:51:09.781Z,102564.59
2022-10-11T01:54:23.390Z,102575.28
2022-10-11T01:57:54.869Z,102577.78
2022-10-11T02:01:30.809Z,102573.22
2022-10-11T02:04:45.159Z,102579.13
2022-10-11T02:07:59.018Z,102576.34
2022-10-11T02:11:09.642Z,102572.91
2022-10-11T02:14:24.681Z,102565.06
2022-10-11T02:17:31.886Z,102573.59
2022-10-11T02:20:37.729Z,102570.94
2022-10-11T02:23:45.467Z,102577.88
2022-10-11T02:26:50.074Z,102576.97
2022-10-11T02:29:54.455Z,102572.59
2022-10-11T02:32:58.694Z,102574.31
2022-10-11T02:36:03.645Z,102580.47
2022-10-11T02:39:17.623Z,102576.97
2022-10-11T02:42:27.268Z,102582.47
2022-10-11T02:45:44.651Z,102571.13
2022-10-11T02:48:46.250Z,102574.41
2022-10-11T02:51:47.774Z,102579.44
2022-10-11T02:54:49.184Z,102576.66
2022-10-11T02:57:50.679Z,102582.78
2022-10-11T03:00:52.204Z,102580.09
2022-10-11T03:03:53.625Z,102580.03
2022-10-11T03:06:55.025Z,102584.41
2022-10-11T03:09:56.434Z,102585.25
2022-10-11T03:12:57.877Z,102580.75
2022-10-11T03:16:03.974Z,102589.63
2022-10-11T03:19:05.408Z,102589.66
2022-10-11T03:22:06.837Z,102591.34
2022-10-11T03:25:08.795Z,102587.88
2022-10-11T03:28:10.253Z,102586.19
2022-10-11T03:31:12.218Z,102597.44
2022-10-11T03:34:13.895Z,102597.22
2022-10-11T03:37:15.361Z,102599.81
2022-10-11T03:40:17.087Z,102602.34
2022-10-11T03:43:18.567Z,102613.53
2022-10-11T03:46:20.008Z,102604.63
2022-10-11T03:49:21.460Z,102607.16
2022-10-11T03:52:22.933Z,102602.69
2022-10-11T03:55:24.413Z,102609.69
2022-10-11T03:58:25.889Z,102610.50
2022-10-11T04:01:27.402Z,102621.75
2022-10-11T04:04:28.820Z,102615.66
2022-10-11T04:07:30.249Z,102609.41
2022-10-11T04:10:31.701Z,102617.94
2022-10-11T04:13:33.123Z,102614.28
2022-10-11T04:16:34.608Z,102618.63
2022-10-11T04:19:36.046Z,102623.72
2022-10-11T04:22:37.472Z,102626.41
2022-10-11T04:25:39.176Z,102630.72
2022-10-11T04:28:40.632Z,102628.06
2022-10-11T04:31:42.089Z,102631.50
2022-10-11T04:34:43.518Z,102623.63
2022-10-11T04:37:44.992Z,102630.72
2022-10-11T04:40:46.460Z,102635.31
2022-10-11T04:43:48.071Z,102628.25
2022-10-11T04:46:49.834Z,102625.63
2022-10-11T04:49:51.285Z,102629.03
2022-10-11T04:52:52.704Z,102632.78
2022-10-11T04:56:05.517Z,102638.13
2022-10-11T04:59:07.153Z,102642.47
2022-10-11T05:02:08.722Z,102637.94
2022-10-11T05:05:10.914Z,102645.66
2022-10-11T05:08:12.417Z,102651.31
2022-10-11T05:11:16.135Z,102651.03
2022-10-11T05:14:17.777Z,102647.50
2022-10-11T05:17:19.341Z,102644.06
2022-10-11T05:20:20.725Z,102649.28
2022-10-11T05:23:22.117Z,102644.97
2022-10-11T05:26:25.710Z,102648.19
2022-10-11T05:29:27.237Z,102655.84
2022-10-11T05:32:28.689Z,102666.06
2022-10-11T05:35:30.127Z,102665.13
2022-10-11T05:38:31.658Z,102666.84
2022-10-11T05:41:33.149Z,102664.31
2022-10-11T05:44:34.586Z,102666.19
2022-10-11T05:47:36.014Z,102678.59
2022-10-11T05:50:38.242Z,102673.69
2022-10-11T05:53:39.681Z,102676.66
2022-10-11T05:56:41.117Z,102681.09
2022-10-11T05:59:42.562Z,102681.09
2022-10-11T06:02:44.012Z,102682.75
2022-10-11T06:05:45.480Z,102689.75
2022-10-11T06:08:48.061Z,102686.41
2022-10-11T06:11:49.580Z,102699.56
2022-10-11T06:14:51.005Z,102687.53
2022-10-11T06:17:52.641Z,102691.25
2022-10-11T06:20:54.033Z,102697.53
2022-10-11T06:24:00.883Z,102693.50
2022-10-11T06:27:02.865Z,102699.94
2022-10-11T06:30:05.164Z,102703.78
2022-10-11T06:33:06.611Z,102713.66
2022-10-11T06:36:12.202Z,102709.75
2022-10-11T06:39:13.625Z,102711.13
2022-10-11T06:42:15.020Z,102713.59
2022-10-11T06:45:16.482Z,102719.75
2022-10-11T06:48:17.952Z,102721.47
2022-10-11T06:51:21.709Z,102721.38
2022-10-11T06:54:23.537Z,102722.91
2022-10-11T06:57:24.955Z,102718.31
2022-10-11T07:00:26.847Z,102724.81
2022-10-11T07:03:30.192Z,102734.13
2022-10-11T07:06:32.038Z,102733.81
2022-10-11T07:09:34.216Z,102737.94
2022-10-11T07:12:35.684Z,102730.91
2022-10-11T07:15:37.554Z,102734.25
2022-10-11T07:18:39.983Z,102737.41
2022-10-11T07:21:41.431Z,102739.06
2022-10-11T07:24:42.898Z,102734.34
2022-10-11T07:27:44.432Z,102742.53
2022-10-11T07:30:46.596Z,102741.84
2022-10-11T07:33:48.529Z,102749.88
2022-10-11T07:36:49.996Z,102749.28
2022-10-11T07:39:51.451Z,102748.44
2022-10-11T07:42:52.969Z,102756.34
2022-10-11T07:45:54.417Z,102754.44
2022-10-11T07:48:56.380Z,102751.78
2022-10-11T07:51:57.781Z,102757.66
2022-10-11T07:54:59.232Z,102756.53
2022-10-11T07:58:00.797Z,102758.09
2022-10-11T08:01:02.472Z,102761.56
2022-10-11T08:04:04.136Z,102756.00
2022-10-11T08:07:06.011Z,102762.66
2022-10-11T08:10:08.405Z,102764.09
2022-10-11T08:13:09.877Z,102767.75
2022-10-11T08:16:12.807Z,102773.13
2022-10-11T08:19:14.977Z,102781.91
2022-10-11T08:22:16.580Z,102781.06
2022-10-11T08:25:18.061Z,102779.25
2022-10-11T08:28:19.606Z,102782.75
2022-10-11T08:31:21.154Z,102785.41
2022-10-11T08:34:22.566Z,102793.31
2022-10-11T08:37:23.985Z,102793.31
2022-10-11T08:40:25.420Z,102793.38
2022-10-11T08:43:47.985Z,102796.03
2022-10-11T08:47:00.469Z,102807.50
2022-10-11T08:50:03.797Z,102803.06
2022-10-11T08:53:18.724Z,102805.72
2022-10-11T08:56:21.809Z,102809.25
2022-10-11T08:59:35.736Z,102811.03
2022-10-11T09:03:07.383Z,102808.34
2022-10-11T09:06:19.739Z,102803.94
2022-10-11T09:09:23.883Z,102818.03
2022-10-11T09:12:38.399Z,102814.50
2022-10-11T09:15:55.632Z,102818.00
2022-10-11T09:18:57.006Z,102810.94
2022-10-11T09:22:35.725Z,102810.00
2022-10-11T09:25:51.315Z,102805.56
2022-10-11T09:29:18.583Z,102809.06
2022-10-11T09:32:20.861Z,102809.88
2022-10-11T09:35:22.507Z,102812.53
2022-10-11T09:39:00.890Z,102816.00
2022-10-11T09:42:07.156Z,102812.41
2022-10-11T09:45:14.217Z,102810.50
2022-10-11T09:48:20.866Z,102804.00
2022-10-11T09:51:25.704Z,102814.97
2022-10-11T09:54:42.235Z,102807.94
2022-10-11T09:57:54.680Z,102819.22
2022-10-11T10:01:06.551Z,102820.91
2022-10-11T10:04:12.477Z,102824.22
2022-10-11T10:07:15.612Z,102816.16
2022-10-11T10:10:35.639Z,102822.16
2022-10-11T10:13:52.236Z,102810.66
2022-10-11T10:17:21.968Z,102812.53
2022-10-11T10:20:30.004Z,102806.00
2022-10-11T10:23:34.784Z,102822.25
2022-10-11T10:26:36.227Z,102809.16
2022-10-11T10:29:37.772Z,102808.44
2022-10-11T10:32:51.349Z,102802.22
2022-10-11T10:35:58.292Z,102806.78
2022-10-11T10:39:42.654Z,102806.53
2022-10-11T10:42:44.236Z,102798.28
2022-10-11T10:46:09.805Z,102800.41
2022-10-11T10:49:48.383Z,102793.75
2022-10-11T10:53:06.286Z,102787.47
2022-10-11T10:56:34.444Z,102793.22
2022-10-11T11:00:02.344Z,102792.59
2022-10-11T11:03:09.129Z,102782.47
2022-10-11T11:06:26.492Z,102792.81
2022-10-11T11:10:13.015Z,102790.19
2022-10-11T11:13:34.808Z,102786.03
2022-10-11T11:16:49.814Z,102779.59
2022-10-11T11:20:08.953Z,102779.53
2022-10-11T11:23:46.932Z,102787.53
2022-10-11T11:27:34.210Z,102792.94
2022-10-11T11:30:56.645Z,102793.38
2022-10-11T11:34:23.168Z,102784.13
2022-10-11T11:37:43.425Z,102782.56
2022-10-11T11:40:52.659Z,102782.56
2022-10-11T11:44:06.437Z,102775.09
2022-10-11T11:47:27.196Z,102775.34
2022-10-11T11:50:36.912Z,102782.09
2022-10-11T11:54:02.048Z,102785.59
2022-10-11T11:57:12.498Z,102770.19
2022-10-11T12:00:19.637Z,102769.09
2022-10-11T12:03:29.152Z,102770.41
2022-10-11T12:06:33.237Z,102763.31
2022-10-11T12:09:35.511Z,102758.56
2022-10-11T12:12:37.840Z,102757.47
2022-10-11T12:15:39.363Z,102753.72
2022-10-11T12:18:56.096Z,102750.25
2022-10-11T12:22:38.022Z,102747.69
2022-10-11T12:25:42.091Z,102752.81
2022-10-11T12:28:43.539Z,102749.16
2022-10-11T12:31:50.539Z,102743.91
2022-10-11T12:35:35.936Z,102738.88
2022-10-11T12:38:38.584Z,102738.38
2022-10-11T12:41:49.151Z,102739.81
2022-10-11T12:45:16.989Z,102739.75
2022-10-11T12:48:45.891Z,102745.03
2022-10-11T12:51:58.070Z,102747.59
2022-10-11T12:55:17.778Z,102743.69
2022-10-11T12:58:28.316Z,102739.59
2022-10-11T13:01:47.481Z,102750.41
2022-10-11T13:04:48.992Z,102745.44
2022-10-11T13:07:53.048Z,102744.84
2022-10-11T13:10:56.682Z,102747.50
2022-10-11T13:14:09.642Z,102734.22
2022-10-11T13:17:16.998Z,102733.34
2022-10-11T13:20:23.637Z,102740.00
2022-10-11T13:23:37.640Z,102734.56
2022-10-11T13:26:39.809Z,102727.91
2022-10-11T13:29:46.714Z,102726.00
2022-10-11T13:32:48.379Z,102718.75
2022-10-11T13:35:51.068Z,102723.56
2022-10-11T13:38:56.310Z,102724.03
2022-10-11T13:41:59.538Z,102710.31
2022-10-11T13:45:01.870Z,102709.28
2022-10-11T13:48:03.680Z,102719.22
2022-10-11T13:51:17.505Z,102719.09
2022-10-11T13:54:18.953Z,102717.44
2022-10-11T13:57:22.617Z,102711.38
2022-10-11T14:00:28.396Z,102711.19
2022-10-11T14:03:42.040Z,102713.72
2022-10-11T14:06:47.832Z,102717.94
2022-10-11T14:09:49.474Z,102716.19
2022-10-11T14:13:02.932Z,102710.03
2022-10-11T14:16:36.890Z,102709.09
2022-10-11T14:19:39.581Z,102702.72
2022-10-11T14:22:41.061Z,102701.72
2022-10-11T14:25:42.512Z,102702.06
2022-10-11T14:28:43.950Z,102699.88
2022-10-11T14:31:45.615Z,102694.19
2022-10-11T14:34:48.899Z,102701.88
2022-10-11T14:37:50.428Z,102688.75
2022-10-11T14:40:51.839Z,102686.19
2022-10-11T14:43:53.258Z,102693.50
2022-10-11T14:46:55.069Z,102694.97
2022-10-11T14:49:56.645Z,102700.75
2022-10-11T14:52:58.194Z,102689.53
2022-10-11T14:55:59.680Z,102694.97
2022-10-11T14:59:01.219Z,102687.06
2022-10-11T15:02:05.644Z,102685.28
2022-10-11T15:05:07.517Z,102688.28
2022-10-11T15:08:09.040Z,102681.31
2022-10-11T15:11:12.867Z,102678.28
2022-10-11T15:14:14.547Z,102674.50
2022-10-11T15:17:15.994Z,102678.94
2022-10-11T15:20:21.445Z,102670.72
2022-10-11T15:23:22.825Z,102673.31
2022-10-11T15:26:26.702Z,102664.34
2022-10-11T15:29:28.150Z,102663.47
2022-10-11T15:32:29.546Z,102667.16
2022-10-11T15:35:31.123Z,102671.00
2022-10-11T15:38:32.948Z,102677.19
2022-10-11T15:41:35.917Z,102660.13
2022-10-11T15:44:37.353Z,102667.28
2022-10-11T15:47:38.973Z,102665.97
2022-10-11T15:50:40.448Z,102669.00
2022-10-11T15:53:41.912Z,102663.09
2022-10-11T15:56:43.338Z,102659.75
2022-10-11T15:59:44.749Z,102664.22
2022-10-11T16:02:46.152Z,102659.91
2022-10-11T16:05:47.691Z,102661.75
2022-10-11T16:08:49.088Z,102664.56
2022-10-11T16:11:50.572Z,102658.50
2022-10-11T16:14:52.559Z,102655.03
2022-10-11T16:17:53.968Z,102664.91
2022-10-11T16:20:55.410Z,102664.22
2022-10-11T16:23:56.983Z,102664.38
2022-10-11T16:27:08.717Z,102661.84
2022-10-11T16:30:12.135Z,102662.78
2022-10-11T16:33:13.534Z,102664.59
2022-10-11T16:36:17.651Z,102666.44
2022-10-11T16:39:19.120Z,102662.06
2022-10-11T16:42:20.575Z,102659.44
2022-10-11T16:45:22.017Z,102660.38
2022-10-11T16:48:23.469Z,102664.78
2022-10-11T16:51:25.000Z,102666.56
2022-10-11T16:54:26.852Z,102672.69
2022-10-11T16:57:28.391Z,102679.66
2022-10-11T17:00:31.332Z,102682.25
2022-10-11T17:03:32.869Z,102680.44
2022-10-11T17:06:34.309Z,102667.16
2022-10-11T17:09:39.108Z,102676.78
2022-10-11T17:12:46.454Z,102676.72
2022-10-11T17:15:50.630Z,102680.19
2022-10-11T17:18:52.094Z,102680.13
2022-10-11T17:21:53.548Z,102675.72
2022-10-11T17:24:54.975Z,102668.66
2022-10-11T17:27:57.369Z,102675.63
2022-10-11T17:30:59.269Z,102669.47
2022-10-11T17:34:00.837Z,102672.91
2022-10-11T17:37:02.355Z,102676.31
2022-10-11T17:40:04.655Z,102672.66
2022-10-11T17:43:06.267Z,102674.31
2022-10-11T17:46:09.018Z,102683.00
2022-10-11T17:49:12.120Z,102672.47
2022-10-11T17:52:14.766Z,102670.59
2022-10-11T17:55:16.190Z,102666.13
2022-10-11T17:58:18.113Z,102673.06
2022-10-11T18:01:22.637Z,102668.59
2022-10-11T18:04:24.500Z,102671.94
2022-10-11T18:07:25.907Z,102668.25
2022-10-11T18:10:27.680Z,102667.25
2022-10-11T18:13:29.344Z,102670.56
2022-10-11T18:16:31.759Z,102658.16
2022-10-11T18:19:33.188Z,102671.16
2022-10-11T18:22:34.794Z,102666.63
2022-10-11T18:25:36.230Z,102668.28
2022-10-11T18:28:38.160Z,102664.66
2022-10-11T18:31:40.293Z,102668.94
2022-10-11T18:34:42.719Z,102659.19
2022-10-11T18:37:44.114Z,102664.31
2022-10-11T18:40:47.270Z,102665.94
2022-10-11T18:43:57.318Z,102660.69
2022-10-11T18:46:58.784Z,102659.84
2022-10-11T18:50:00.198Z,102651.03
2022-10-11T18:53:01.899Z,102659.66
2022-10-11T18:56:05.973Z,102664.91
2022-10-11T18:59:07.609Z,102657.84
2022-10-11T19:02:11.560Z,102649.91
2022-10-11T19:05:13.069Z,102656.94
2022-10-11T19:08:14.477Z,102650.72
2022-10-11T19:11:17.425Z,102650.69
2022-10-11T19:14:22.849Z,102653.34
2022-10-11T19:17:24.506Z,102650.84
2022-10-11T19:20:25.904Z,102654.41
2022-10-11T19:23:27.579Z,102646.44
2022-10-11T19:26:34.668Z,102648.06
2022-10-11T19:29:36.052Z,102656.66
2022-10-11T19:32:37.434Z,102650.50
2022-10-11T19:35:38.820Z,102658.50
2022-10-11T19:38:46.794Z,102653.13
2022-10-11T19:41:48.564Z,102659.19
2022-10-11T19:44:49.929Z,102652.13
2022-10-11T19:47:51.332Z,102657.31
2022-10-11T19:50:52.815Z,102653.72
2022-10-11T19:54:02.058Z,102658.78
2022-10-11T19:57:03.600Z,102660.47
2022-10-11T20:00:05.396Z,102659.38
2022-10-11T20:03:06.762Z,102663.72
2022-10-11T20:06:09.295Z,102657.50
2022-10-11T20:09:28.595Z,102659.16
2022-10-11T20:12:31.554Z,102656.38
2022-10-11T20:15:36.913Z,102662.28
2022-10-11T20:18:38.865Z,102661.25
2022-10-11T20:21:40.254Z,102660.31
2022-10-11T20:24:41.641Z,102669.78
2022-10-11T20:27:43.035Z,102654.75
2022-10-11T20:30:44.460Z,102660.88
2022-10-11T20:33:47.301Z,102657.25
2022-10-11T20:36:49.420Z,102660.72
2022-10-11T20:39:51.373Z,102649.22
2022-10-11T20:42:52.749Z,102651.75
2022-10-11T20:45:59.088Z,102651.63
2022-10-11T20:49:11.304Z,102655.03
2022-10-11T20:52:12.820Z,102653.25
2022-10-11T20:55:14.346Z,102657.53
2022-10-11T20:58:16.507Z,102649.59
2022-10-11T21:01:32.914Z,102642.41
2022-10-11T21:04:34.400Z,102651.94
2022-10-11T21:07:36.122Z,102650.16
2022-10-11T21:10:38.186Z,102652.75
2022-10-11T21:13:40.633Z,102658.00
2022-10-11T21:16:42.058Z,102655.19
2022-10-11T21:19:43.467Z,102657.72
2022-10-11T21:22:44.895Z,102653.34
2022-10-11T21:25:46.275Z,102654.97
2022-10-11T21:28:47.847Z,102644.44
2022-10-11T21:31:49.251Z,102653.03
2022-10-11T21:34:50.632Z,102655.56
2022-10-11T21:37:52.046Z,102651.25
2022-10-11T21:40:53.445Z,102656.41
2022-10-11T21:43:54.833Z,102654.59
2022-10-11T21:47:11.507Z,102644.94
2022-10-11T21:50:13.275Z,102647.47
2022-10-11T21:53:14.660Z,102647.59
2022-10-11T21:56:16.349Z,102644.91
2022-10-11T21:59:17.892Z,102646.56
2022-10-11T22:02:19.295Z,102648.31
2022-10-11T22:05:21.083Z,102653.47
2022-10-11T22:08:22.775Z,102651.78
2022-10-11T22:11:25.018Z,102650.84
2022-10-11T22:14:26.778Z,102648.03
2022-10-11T22:17:28.189Z,102651.47
2022-10-11T22:20:32.023Z,102642.69
2022-10-11T22:23:34.487Z,102639.09
2022-10-11T22:26:35.909Z,102644.25
2022-10-11T22:29:37.301Z,102639.84
2022-10-11T22:32:38.700Z,102646.75
2022-10-11T22:35:40.084Z,102646.81
2022-10-11T22:38:43.145Z,102642.38
2022-10-11T22:41:44.572Z,102644.84
2022-10-11T22:44:45.976Z,102637.97
2022-10-11T22:47:47.364Z,102640.47
2022-10-11T22:50:48.785Z,102630.94
2022-10-11T22:53:50.246Z,102630.94
2022-10-11T22:56:51.761Z,102622.19
2022-10-11T22:59:53.152Z,102624.00
2022-10-11T23:02:54.548Z,102619.56
2022-10-11T23:05:57.496Z,102628.38
2022-10-11T23:08:58.913Z,102632.09
2022-10-11T23:12:00.325Z,102623.47
2022-10-11T23:15:01.746Z,102627.00
2022-10-11T23:18:03.202Z,102619.06
2022-10-11T23:21:05.383Z,102624.25
2022-10-11T23:24:07.033Z,102620.59
2022-10-11T23:27:08.442Z,102618.72
2022-10-11T23:30:10.782Z,102615.06
2022-10-11T23:33:12.178Z,102619.31
2022-10-11T23:36:25.209Z,102616.84
2022-10-11T23:39:26.666Z,102613.63
2022-10-11T23:42:28.069Z,102614.56
2022-10-11T23:45:29.471Z,102614.63
2022-10-11T23:48:30.894Z,102612.09
2022-10-11T23:51:32.342Z,102614.94
2022-10-11T23:54:33.748Z,102616.72
2022-10-11T23:57:35.307Z,102611.50
